createdAt,value
2019-01-20T00:03:15.372Z,-1.20
2019-01-20T00:13:20.718Z,-1.20
2019-01-20T00:23:25.975Z,-1.30
2019-01-20T00:33:31.542Z,-1.40
2019-01-20T00:43:36.908Z,-1.50
2019-01-20T00:53:42.376Z,-1.60
2019-01-20T01:03:47.740Z,-1.70
2019-01-20T01:13:53.096Z,-1.70
2019-01-20T01:23:58.457Z,-1.70
2019-01-20T01:34:03.671Z,-1.70
2019-01-20T01:44:09.349Z,-1.80
2019-01-20T01:54:14.724Z,-1.80
2019-01-20T02:04:20.075Z,-1.70
2019-01-20T02:14:25.384Z,-1.40
2019-01-20T02:24:30.862Z,-0.80
2019-01-20T02:34:36.135Z,-0.40
2019-01-20T02:44:41.569Z,0.00
2019-01-20T02:54:47.003Z,0.10
2019-01-20T03:04:52.259Z,0.10
2019-01-20T03:14:57.577Z,0.20
2019-01-20T03:25:02.890Z,0.50
2019-01-20T03:35:08.599Z,0.70
2019-01-20T03:45:15.923Z,0.70
2019-01-20T03:55:21.251Z,0.60
2019-01-20T04:05:26.632Z,0.50
2019-01-20T04:15:31.906Z,0.20
2019-01-20T04:25:37.320Z,0.20
2019-01-20T04:35:42.629Z,0.10
2019-01-20T04:45:47.854Z,-0.30
2019-01-20T04:55:53.206Z,-0.60
2019-01-20T05:05:58.542Z,-0.80
2019-01-20T05:16:03.976Z,-1.00
2019-01-20T05:26:09.330Z,-1.30
2019-01-20T05:36:14.650Z,-1.60
2019-01-20T05:46:20.021Z,-1.70
2019-01-20T05:56:25.376Z,-1.80
2019-01-20T06:06:30.829Z,-2.00
2019-01-20T06:16:36.199Z,-2.20
2019-01-20T06:26:41.836Z,-2.30
2019-01-20T06:36:47.103Z,-2.20
2019-01-20T06:46:52.420Z,-2.30
2019-01-20T06:56:57.858Z,-2.30
2019-01-20T07:07:03.201Z,-2.20
2019-01-20T07:17:08.534Z,-2.00
2019-01-20T07:27:13.861Z,-1.90
2019-01-20T07:37:19.263Z,-1.40
2019-01-20T07:47:24.977Z,-0.80
2019-01-20T07:57:30.377Z,-0.10
2019-01-20T08:07:35.665Z,0.70
2019-01-20T08:17:41.111Z,1.40
2019-01-20T08:27:46.427Z,1.80
2019-01-20T08:37:51.751Z,2.20
2019-01-20T08:48:01.613Z,2.60
2019-01-20T08:58:07.017Z,2.60
2019-01-20T09:08:12.601Z,2.70
2019-01-20T09:18:17.971Z,2.70
2019-01-20T09:28:23.289Z,2.70
2019-01-20T09:38:28.993Z,2.60
2019-01-20T09:48:34.386Z,2.70
2019-01-20T09:58:39.615Z,2.70
2019-01-20T10:08:46.153Z,2.60
2019-01-20T10:18:51.519Z,2.40
2019-01-20T10:28:57.237Z,2.20
2019-01-20T10:39:02.990Z,1.90
2019-01-20T10:49:08.348Z,2.10
2019-01-20T10:59:13.786Z,2.30
2019-01-20T11:09:19.134Z,2.30
2019-01-20T11:19:24.520Z,2.20
2019-01-20T11:29:29.815Z,2.30
2019-01-20T11:39:35.054Z,2.40
2019-01-20T11:49:40.373Z,2.50
2019-01-20T11:59:45.718Z,2.50
2019-01-20T12:09:51.106Z,2.60
2019-01-20T12:19:56.498Z,2.50
2019-01-20T12:30:01.812Z,2.50
2019-01-20T12:40:10.795Z,2.30
2019-01-20T12:50:16.684Z,2.20
2019-01-20T13:00:22.193Z,2.00
2019-01-20T13:10:27.615Z,1.90
2019-01-20T13:20:32.988Z,1.80
2019-01-20T13:30:38.343Z,1.90
2019-01-20T13:41:04.427Z,1.90
2019-01-20T13:51:09.978Z,1.80
2019-01-20T14:01:15.423Z,2.10
2019-01-20T14:11:20.682Z,2.10
2019-01-20T14:21:26.161Z,2.30
2019-01-20T14:31:31.418Z,2.00
2019-01-20T14:41:36.759Z,1.60
2019-01-20T14:51:42.014Z,1.40
2019-01-20T15:01:47.279Z,1.20
2019-01-20T15:11:52.571Z,0.90
2019-01-20T15:21:58.971Z,0.70
2019-01-20T15:32:04.307Z,0.50
2019-01-20T15:42:09.712Z,0.30
2019-01-20T15:52:15.121Z,0.10
2019-01-20T16:02:20.610Z,0.30
2019-01-20T16:12:26.175Z,0.30
2019-01-20T16:22:31.501Z,0.00
2019-01-20T16:32:36.805Z,-0.10
2019-01-20T16:42:42.287Z,-0.10
2019-01-20T16:52:47.607Z,0.20
2019-01-20T17:02:53.323Z,0.50
2019-01-20T17:12:58.968Z,0.50
2019-01-20T17:23:04.638Z,0.60
2019-01-20T17:33:10.874Z,0.40
2019-01-20T17:43:16.171Z,0.40
2019-01-20T17:53:21.637Z,0.10
2019-01-20T18:03:26.957Z,-0.10
2019-01-20T18:13:32.480Z,-0.30
2019-01-20T18:23:38.110Z,-0.20
2019-01-20T18:33:43.441Z,0.00
2019-01-20T18:43:48.936Z,0.10
2019-01-20T18:53:54.224Z,0.10
2019-01-20T19:03:59.576Z,0.20
2019-01-20T19:14:05.312Z,0.20
2019-01-20T19:24:10.617Z,-0.20
2019-01-20T19:34:15.984Z,-0.60
2019-01-20T19:44:21.298Z,-0.90
2019-01-20T19:54:26.630Z,-1.00
2019-01-20T20:04:31.894Z,-1.20
2019-01-20T20:14:37.312Z,-1.30
2019-01-20T20:24:42.684Z,-1.40
2019-01-20T20:34:48.027Z,-1.40
2019-01-20T20:44:53.438Z,-1.40
2019-01-20T20:54:58.866Z,-0.80
2019-01-20T21:05:04.416Z,-0.80
2019-01-20T21:15:11.205Z,-0.80
2019-01-20T21:25:16.483Z,-0.70
2019-01-20T21:35:22.063Z,-0.40
2019-01-20T21:45:27.436Z,-0.20
2019-01-20T21:55:32.714Z,-0.10
2019-01-20T22:05:37.951Z,0.10
2019-01-20T22:15:43.287Z,0.20
2019-01-20T22:25:48.581Z,0.30
2019-01-20T22:35:53.957Z,0.30
2019-01-20T22:45:59.317Z,0.40
2019-01-20T22:56:04.680Z,0.40
2019-01-20T23:06:10.094Z,0.20
2019-01-20T23:16:15.551Z,0.10
2019-01-20T23:26:20.918Z,0.10
2019-01-20T23:36:26.248Z,0.00
2019-01-20T23:46:31.570Z,0.00
2019-01-20T23:56:37.047Z,-0.10
